Time;durP1;ratioP1;P1;durP2;ratioP2;P2;SDS_P1;SDS_P2;PMS_P1;PMS_P2;Temp;Humidity;BMP_temperature;BMP_pressure;BME280_temperature;BME280_humidity;BME280_pressure;Samples;Min_cycle;Max_cycle;Signal;HPM_P1;HPM_P2
2023/04/08 00:00:06;;;;;;;43.80;23.48;;;;;;;6.99;100.00;101310.41;698920;28;955;-57
2023/04/08 00:00:30;;;;;;;46.85;23.20;;;;;;;6.99;100.00;101318.22;701155;28;1469;-57
2023/04/08 00:00:50;;;;;;;45.83;23.03;;;;;;;6.97;100.00;101305.19;703196;28;888;-57
2023/04/08 00:01:11;;;;;;;43.17;23.23;;;;;;;6.98;100.00;101313.88;702436;28;4541;-57
2023/04/08 00:01:32;;;;;;;43.63;23.85;;;;;;;6.97;100.00;101304.31;702561;28;1514;-57
2023/04/08 00:01:53;;;;;;;49.47;24.53;;;;;;;6.96;100.00;101310.34;702673;28;990;-57
2023/04/08 00:02:13;;;;;;;46.55;24.15;;;;;;;6.95;100.00;101308.59;695988;28;905;-58
2023/04/08 00:02:34;;;;;;;46.10;24.90;;;;;;;6.95;100.00;101311.19;696874;28;1576;-57
2023/04/08 00:02:54;;;;;;;45.27;24.60;;;;;;;6.97;100.00;101309.50;696945;28;916;-57
2023/04/08 00:03:14;;;;;;;46.28;24.38;;;;;;;6.98;100.00;101308.69;698527;28;801;-57
2023/04/08 00:03:35;;;;;;;42.90;23.50;;;;;;;7.00;100.00;101317.38;697720;28;1646;-57
2023/04/08 00:03:55;;;;;;;45.58;23.48;;;;;;;6.99;100.00;101308.69;698480;28;795;-57
2023/04/08 00:04:18;;;;;;;50.20;24.60;;;;;;;6.98;100.00;101309.53;703773;28;4569;-57
2023/04/08 00:04:38;;;;;;;46.78;24.27;;;;;;;6.97;100.00;101314.72;703457;28;1760;-57
2023/04/08 00:04:58;;;;;;;45.67;23.67;;;;;;;6.97;100.00;101309.50;702666;28;783;-57
2023/04/08 00:05:19;;;;;;;44.90;23.53;;;;;;;6.97;100.00;101312.13;703895;28;1056;-57
2023/04/08 00:05:39;;;;;;;45.83;23.85;;;;;;;6.96;100.00;101316.44;700657;28;1375;-57
2023/04/08 00:06:02;;;;;;;44.40;23.33;;;;;;;6.95;100.00;101309.50;700976;28;857;-58
2023/04/08 00:06:22;;;;;;;45.20;23.67;;;;;;;6.96;100.00;101312.94;700642;28;1749;-57
2023/04/08 00:06:42;;;;;;;46.03;23.53;;;;;;;6.96;100.00;101312.94;700132;28;1558;-57
2023/04/08 00:07:03;;;;;;;44.67;23.55;;;;;;;6.96;100.00;101315.56;700457;28;1007;-57
2023/04/08 00:07:23;;;;;;;49.17;23.77;;;;;;;7.04;100.00;101308.78;700169;28;4327;-57
2023/04/08 00:07:43;;;;;;;48.10;23.47;;;;;;;7.07;100.00;101321.84;700043;28;1077;-57
2023/04/08 00:08:05;;;;;;;44.17;23.42;;;;;;;7.08;100.00;101317.53;700532;28;1024;-58
2023/04/08 00:08:25;;;;;;;43.58;24.02;;;;;;;7.19;100.00;101315.16;701827;28;1493;-57
2023/04/08 00:08:45;;;;;;;40.50;22.58;;;;;;;7.19;100.00;101308.22;701359;28;1294;-57
2023/04/08 00:09:06;;;;;;;40.77;22.70;;;;;;;7.16;100.00;101311.63;701841;28;1231;-57
2023/04/08 00:09:26;;;;;;;41.60;22.58;;;;;;;7.14;100.00;101315.94;701351;28;1548;-57
2023/04/08 00:09:47;;;;;;;41.97;22.80;;;;;;;7.11;100.00;101321.06;701599;28;888;-57
2023/04/08 00:10:07;;;;;;;41.23;22.50;;;;;;;7.10;100.00;101316.72;698508;28;4412;-57
2023/04/08 00:10:28;;;;;;;43.42;22.48;;;;;;;7.09;100.00;101317.56;698152;28;1601;-57
2023/04/08 00:10:48;;;;;;;39.33;21.27;;;;;;;7.06;100.00;101312.31;699066;28;1667;-57
2023/04/08 00:11:09;;;;;;;41.23;22.23;;;;;;;7.07;100.00;101316.63;696006;28;1918;-57
2023/04/08 00:11:29;;;;;;;40.95;22.52;;;;;;;7.05;100.00;101318.34;695924;28;1578;-56
2023/04/08 00:11:50;;;;;;;42.83;22.63;;;;;;;7.05;100.00;101315.75;696251;28;908;-57
2023/04/08 00:12:10;;;;;;;41.00;21.65;;;;;;;7.05;100.00;101313.16;698577;28;983;-57
2023/04/08 00:12:31;;;;;;;41.97;21.65;;;;;;;7.03;100.00;101320.03;697818;28;1459;-57
2023/04/08 00:12:52;;;;;;;43.13;22.23;;;;;;;7.03;100.00;101311.34;701075;28;844;-58
2023/04/08 00:13:13;;;;;;;38.23;21.90;;;;;;;7.04;100.00;101318.31;703250;28;4581;-57
2023/04/08 00:13:34;;;;;;;38.72;22.02;;;;;;;7.03;100.00;101314.81;704120;28;1177;-57
2023/04/08 00:13:54;;;;;;;40.83;22.07;;;;;;;7.03;100.00;101316.56;702501;28;1010;-57
2023/04/08 00:14:15;;;;;;;39.85;22.20;;;;;;;7.01;100.00;101313.94;703624;28;962;-57
2023/04/08 00:14:37;;;;;;;39.13;21.83;;;;;;;7.03;100.00;101322.63;702463;28;1842;-57
2023/04/08 00:14:57;;;;;;;39.80;21.33;;;;;;;7.01;100.00;101313.94;703743;28;863;-57
2023/04/08 00:15:17;;;;;;;39.17;21.30;;;;;;;7.00;100.00;101314.78;701777;28;998;-57
2023/04/08 00:15:38;;;;;;;40.57;21.27;;;;;;;7.00;100.00;101312.16;698133;28;1188;-57
2023/04/08 00:15:58;;;;;;;40.40;21.60;;;;;;;6.99;100.00;101313.91;698788;28;774;-58
2023/04/08 00:16:18;;;;;;;42.87;21.87;;;;;;;6.98;100.00;101317.34;698574;28;4425;-57
2023/04/08 00:16:41;;;;;;;38.10;21.00;;;;;;;6.98;100.00;101319.06;698364;28;1766;-57
2023/04/08 00:17:01;;;;;;;38.17;20.90;;;;;;;7.01;100.00;101316.53;699275;28;951;-57
2023/04/08 00:17:22;;;;;;;36.17;20.47;;;;;;;7.13;100.00;101316.78;697189;28;1240;-57
2023/04/08 00:17:42;;;;;;;40.20;20.75;;;;;;;7.23;100.00;101319.56;699421;28;1566;-57
2023/04/08 00:18:03;;;;;;;38.97;21.00;;;;;;;7.27;100.00;101318.75;699961;28;888;-56
2023/04/08 00:18:23;;;;;;;40.60;21.20;;;;;;;7.22;100.00;101315.22;701378;28;800;-57
2023/04/08 00:18:43;;;;;;;41.70;21.50;;;;;;;7.18;100.00;101319.47;700776;28;1472;-57
2023/04/08 00:19:05;;;;;;;37.80;21.55;;;;;;;7.20;100.00;101316.88;699579;28;1023;-57
2023/04/08 00:19:26;;;;;;;37.00;20.52;;;;;;;7.18;100.00;101308.19;697081;28;4773;-57
2023/04/08 00:19:46;;;;;;;35.37;20.63;;;;;;;7.15;100.00;101314.22;698721;28;3456;-57
2023/04/08 00:20:07;;;;;;;36.83;21.00;;;;;;;7.10;100.00;101311.53;697403;28;864;-57
2023/04/08 00:20:27;;;;;;;36.43;20.77;;;;;;;7.10;100.00;101306.31;698020;28;922;-56
2023/04/08 00:20:48;;;;;;;36.73;20.53;;;;;;;7.16;100.00;101314.22;698211;28;1002;-57
2023/04/08 00:21:08;;;;;;;36.77;21.03;;;;;;;7.22;100.00;101315.22;698374;28;1148;-57
2023/04/08 00:21:28;;;;;;;38.00;21.08;;;;;;;7.25;100.00;101313.53;700090;28;1478;-57
2023/04/08 00:21:49;;;;;;;36.73;20.53;;;;;;;7.24;100.00;101316.09;698652;28;841;-57
2023/04/08 00:22:10;;;;;;;36.13;19.53;;;;;;;7.19;100.00;101312.56;697615;28;4493;-57
2023/04/08 00:22:30;;;;;;;37.60;19.83;;;;;;;7.16;100.00;101314.22;696887;28;1440;-57
2023/04/08 00:22:51;;;;;;;36.03;20.33;;;;;;;7.14;100.00;101318.53;697972;28;979;-58
2023/04/08 00:23:15;;;;;;;36.90;20.73;;;;;;;7.13;100.00;101318.47;695494;28;924;-57
2023/04/08 00:23:35;;;;;;;39.20;20.95;;;;;;;7.11;100.00;101313.25;695545;28;1510;-57
2023/04/08 00:23:55;;;;;;;38.37;20.73;;;;;;;7.10;100.00;101310.63;698007;28;975;-57
2023/04/08 00:24:16;;;;;;;37.67;20.53;;;;;;;7.13;100.00;101316.78;697639;28;857;-57
2023/04/08 00:24:36;;;;;;;39.15;20.95;;;;;;;7.14;100.00;101313.34;696690;28;1458;-57
2023/04/08 00:24:57;;;;;;;36.47;21.23;;;;;;;7.13;100.00;101316.78;697352;28;916;-57
2023/04/08 00:25:18;;;;;;;37.72;21.08;;;;;;;7.13;100.00;101315.88;697620;28;4620;-57
2023/04/08 00:25:38;;;;;;;36.60;20.73;;;;;;;7.11;100.00;101321.06;698289;28;1449;-57
2023/04/08 00:25:58;;;;;;;35.57;20.17;;;;;;;7.09;100.00;101308.88;699152;28;777;-57
2023/04/08 00:26:19;;;;;;;35.28;20.20;;;;;;;7.08;100.00;101318.41;698837;28;900;-56
2023/04/08 00:26:39;;;;;;;35.43;20.23;;;;;;;7.06;100.00;101316.63;698448;28;1662;-57
2023/04/08 00:27:00;;;;;;;36.63;20.83;;;;;;;7.06;100.00;101312.31;698776;28;880;-57
2023/04/08 00:27:20;;;;;;;37.80;20.70;;;;;;;7.05;100.00;101313.16;701453;28;1043;-57
2023/04/08 00:27:40;;;;;;;39.57;20.97;;;;;;;7.05;100.00;101315.75;699573;28;1494;-57
2023/04/08 00:28:00;;;;;;;41.57;21.57;;;;;;;7.06;100.00;101322.72;697259;28;1312;-57
2023/04/08 00:28:21;;;;;;;39.93;21.30;;;;;;;7.07;100.00;101320.97;694840;28;4524;-57
2023/04/08 00:28:42;;;;;;;39.27;21.03;;;;;;;7.07;100.00;101315.78;693040;28;1538;-56
2023/04/08 00:29:02;;;;;;;35.87;21.30;;;;;;;7.07;100.00;101316.63;691909;28;1316;-57
2023/04/08 00:29:22;;;;;;;36.33;21.80;;;;;;;7.07;100.00;101316.63;693429;28;865;-57
2023/04/08 00:29:43;;;;;;;40.17;21.83;;;;;;;7.08;100.00;101315.81;693186;28;1432;-57
2023/04/08 00:30:04;;;;;;;39.05;21.60;;;;;;;7.06;100.00;101320.09;693186;28;1147;-57
2023/04/08 00:30:26;;;;;;;40.88;21.20;;;;;;;7.06;100.00;101316.63;696251;28;936;-57
2023/04/08 00:30:47;;;;;;;42.45;22.15;;;;;;;7.06;100.00;101319.22;698727;28;1026;-57
2023/04/08 00:31:08;;;;;;;43.40;21.77;;;;;;;7.06;100.00;101317.50;697751;28;4464;-57
2023/04/08 00:31:28;;;;;;;43.30;21.42;;;;;;;7.06;100.00;101319.22;698424;28;1917;-57
2023/04/08 00:31:49;;;;;;;36.95;20.95;;;;;;;7.05;100.00;101323.53;699187;28;1190;-57
2023/04/08 00:32:09;;;;;;;36.67;21.30;;;;;;;7.03;100.00;101317.41;700188;28;805;-57
2023/04/08 00:32:29;;;;;;;39.97;21.77;;;;;;;7.04;100.00;101320.91;696476;28;1643;-57
2023/04/08 00:32:51;;;;;;;41.15;21.30;;;;;;;7.04;100.00;101320.91;697113;28;891;-57
2023/04/08 00:33:11;;;;;;;42.17;21.60;;;;;;;7.03;100.00;101322.63;693511;28;865;-58
2023/04/08 00:33:32;;;;;;;42.43;21.47;;;;;;;7.03;100.00;101319.16;694976;28;2037;-57
2023/04/08 00:33:52;;;;;;;41.90;21.75;;;;;;;7.02;100.00;101312.19;693228;28;897;-57
2023/04/08 00:34:13;;;;;;;41.57;22.63;;;;;;;7.02;100.00;101314.78;691869;28;4694;-57
2023/04/08 00:34:33;;;;;;;41.43;22.17;;;;;;;7.03;100.00;101321.75;694350;28;946;-57
2023/04/08 00:34:54;;;;;;;43.77;22.70;;;;;;;7.03;100.00;101317.41;693812;28;1027;-57
2023/04/08 00:35:14;;;;;;;42.53;22.23;;;;;;;7.03;100.00;101320.03;694256;28;955;-57
2023/04/08 00:35:35;;;;;;;44.57;22.07;;;;;;;7.05;100.00;101317.44;697663;28;1465;-57
2023/04/08 00:35:55;;;;;;;43.90;22.15;;;;;;;7.04;100.00;101319.19;699222;28;986;-57
2023/04/08 00:36:16;;;;;;;41.33;20.93;;;;;;;7.05;100.00;101317.44;699969;28;848;-57
2023/04/08 00:36:36;;;;;;;39.78;21.40;;;;;;;7.06;100.00;101314.00;696759;28;1589;-57
2023/04/08 00:36:57;;;;;;;41.20;22.55;;;;;;;7.05;100.00;101323.53;699048;28;923;-57
2023/04/08 00:37:17;;;;;;;43.27;22.57;;;;;;;7.05;100.00;101315.75;697673;28;4358;-57
2023/04/08 00:37:38;;;;;;;42.07;22.43;;;;;;;7.05;100.00;101318.34;698347;28;1579;-57
2023/04/08 00:37:58;;;;;;;42.53;22.40;;;;;;;7.05;100.00;101315.75;696224;28;928;-57
2023/04/08 00:38:18;;;;;;;44.63;22.33;;;;;;;7.05;100.00;101320.94;696102;28;1502;-57
2023/04/08 00:38:39;;;;;;;41.00;21.88;;;;;;;7.05;100.00;101313.16;695565;28;1588;-57
2023/04/08 00:38:59;;;;;;;40.67;22.30;;;;;;;7.06;100.00;101319.22;696335;28;927;-57
2023/04/08 00:39:19;;;;;;;40.70;22.50;;;;;;;7.05;100.00;101318.34;695791;28;991;-57
2023/04/08 00:39:40;;;;;;;40.13;21.87;;;;;;;7.08;100.00;101312.34;695423;28;1441;-57
2023/04/08 00:40:00;;;;;;;41.93;22.00;;;;;;;7.15;100.00;101320.28;696117;28;1315;-57
2023/04/08 00:40:21;;;;;;;43.87;22.60;;;;;;;7.14;100.00;101322.84;696404;28;4286;-57
2023/04/08 00:40:41;;;;;;;40.70;22.20;;;;;;;7.13;100.00;101326.28;699564;28;1556;-57
2023/04/08 00:41:04;;;;;;;41.75;22.77;;;;;;;7.11;100.00;101322.78;698072;28;753;-57
2023/04/08 00:41:24;;;;;;;38.63;22.20;;;;;;;7.10;100.00;101321.94;700338;28;1188;-57
2023/04/08 00:41:45;;;;;;;39.77;22.30;;;;;;;7.09;100.00;101320.16;699745;28;1494;-57
2023/04/08 00:42:05;;;;;;;39.95;22.42;;;;;;;7.09;100.00;101319.25;701747;28;794;-57
2023/04/08 00:42:25;;;;;;;37.97;21.90;;;;;;;7.08;100.00;101323.59;702212;28;5384;-57
2023/04/08 00:42:46;;;;;;;38.73;21.70;;;;;;;7.07;100.00;101327.03;702626;28;844;-57
2023/04/08 00:43:06;;;;;;;41.28;21.83;;;;;;;7.11;100.00;101321.06;701544;28;4367;-57
2023/04/08 00:43:27;;;;;;;37.27;21.70;;;;;;;7.11;100.00;101322.78;702747;28;1629;-58
2023/04/08 00:43:47;;;;;;;39.78;22.00;;;;;;;7.11;100.00;101323.66;701241;28;1337;-57
2023/04/08 00:44:07;;;;;;;37.77;21.83;;;;;;;7.08;100.00;101320.13;701906;28;904;-57
2023/04/08 00:44:28;;;;;;;40.33;22.45;;;;;;;7.07;100.00;101319.25;698144;28;1553;-57
2023/04/08 00:44:48;;;;;;;39.37;21.13;;;;;;;7.08;100.00;101325.34;698762;28;1043;-57
2023/04/08 00:45:10;;;;;;;37.15;21.27;;;;;;;7.11;100.00;101323.66;695754;28;908;-57
2023/04/08 00:45:30;;;;;;;39.22;21.25;;;;;;;7.15;100.00;101320.28;692972;28;1636;-57
2023/04/08 00:45:50;;;;;;;37.57;21.60;;;;;;;7.23;100.00;101319.56;695617;28;1152;-57
2023/04/08 00:46:11;;;;;;;38.93;21.43;;;;;;;7.21;100.00;101318.66;698323;28;4384;-57
2023/04/08 00:46:37;;;;;;;38.63;20.75;;;;;;;7.18;100.00;101326.41;698200;28;1600;-57
2023/04/08 00:46:58;;;;;;;38.17;21.58;;;;;;;7.18;100.00;101321.19;699160;28;1154;-57
2023/04/08 00:47:18;;;;;;;38.40;22.02;;;;;;;7.19;100.00;101318.63;696868;28;774;-57
2023/04/08 00:47:39;;;;;;;40.27;22.67;;;;;;;7.18;100.00;101324.66;694170;28;1558;-57
2023/04/08 00:48:01;;;;;;;38.65;22.00;;;;;;;7.16;100.00;101329.84;693231;28;1541;-57
2023/04/08 00:48:21;;;;;;;41.90;22.40;;;;;;;7.16;100.00;101323.78;695276;28;1175;-57
2023/04/08 00:48:42;;;;;;;37.47;21.60;;;;;;;7.18;100.00;101321.19;692810;28;1143;-57
2023/04/08 00:49:02;;;;;;;39.13;22.10;;;;;;;7.16;100.00;101326.38;693187;28;1416;-57
2023/04/08 00:49:23;;;;;;;38.53;21.67;;;;;;;7.12;100.00;101319.34;694453;28;4667;-57
2023/04/08 00:49:44;;;;;;;35.40;20.87;;;;;;;7.11;100.00;101323.66;692666;28;1574;-57
2023/04/08 00:50:09;;;;;;;36.90;20.98;;;;;;;7.09;100.00;101319.25;691589;28;1617;-57
2023/04/08 00:50:30;;;;;;;36.97;21.05;;;;;;;7.09;100.00;101324.47;693082;28;1570;-58
2023/04/08 00:50:50;;;;;;;37.73;21.13;;;;;;;7.09;100.00;101325.38;697137;28;888;-57
2023/04/08 00:51:11;;;;;;;39.25;22.02;;;;;;;7.06;100.00;101320.09;697345;28;1914;-57
2023/04/08 00:51:35;;;;;;;41.70;22.60;;;;;;;7.08;100.00;101322.75;698052;28;1436;-57
2023/04/08 00:51:55;;;;;;;41.95;22.05;;;;;;;7.07;100.00;101327.03;697022;28;1198;-57
2023/04/08 00:52:15;;;;;;;40.42;21.88;;;;;;;7.06;100.00;101324.41;695436;28;4552;-57
2023/04/08 00:52:36;;;;;;;40.87;21.63;;;;;;;7.06;100.00;101327.91;695701;28;1609;-58
2023/04/08 00:52:56;;;;;;;43.75;21.95;;;;;;;7.05;100.00;101326.16;696527;28;885;-57
2023/04/08 00:53:18;;;;;;;43.50;21.97;;;;;;;7.05;100.00;101318.34;698827;28;1523;-57
2023/04/08 00:53:39;;;;;;;38.95;21.27;;;;;;;7.05;100.00;101322.66;697636;28;1504;-57
2023/04/08 00:53:59;;;;;;;41.55;22.52;;;;;;;7.05;100.00;101322.66;696184;28;1536;-57
2023/04/08 00:54:20;;;;;;;41.00;22.60;;;;;;;7.06;100.00;101325.31;698952;28;896;-57
2023/04/08 00:54:40;;;;;;;41.03;22.17;;;;;;;7.07;100.00;101326.19;698446;28;1711;-57
2023/04/08 00:55:01;;;;;;;42.13;23.07;;;;;;;7.06;100.00;101327.00;694586;28;1044;-57
2023/04/08 00:55:24;;;;;;;42.05;22.33;;;;;;;7.07;100.00;101326.19;695818;28;4331;-57
2023/04/08 00:55:45;;;;;;;43.17;22.15;;;;;;;7.06;100.00;101324.41;696000;28;1793;-57
2023/04/08 00:56:05;;;;;;;44.70;23.05;;;;;;;7.05;100.00;101326.16;696494;28;923;-57
2023/04/08 00:56:26;;;;;;;42.42;22.60;;;;;;;7.05;100.00;101328.75;696952;28;1506;-58
2023/04/08 00:56:49;;;;;;;41.50;22.55;;;;;;;7.03;100.00;101317.41;700149;28;1759;-57
2023/04/08 00:57:09;;;;;;;41.70;22.90;;;;;;;7.05;100.00;101322.66;703341;28;911;-57
2023/04/08 00:57:30;;;;;;;43.17;22.10;;;;;;;7.04;100.00;101321.78;700150;28;1511;-57
2023/04/08 00:57:50;;;;;;;41.07;22.77;;;;;;;7.04;100.00;101321.78;698898;28;1282;-57
2023/04/08 00:58:12;;;;;;;42.63;23.33;;;;;;;7.04;100.00;101329.59;694329;28;4528;-56
2023/04/08 00:58:33;;;;;;;45.60;22.77;;;;;;;7.06;100.00;101320.09;695554;28;1469;-57
2023/04/08 00:58:54;;;;;;;47.03;22.77;;;;;;;7.04;100.00;101324.38;696123;28;813;-56
2023/04/08 00:59:17;;;;;;;43.95;23.10;;;;;;;7.05;100.00;101318.34;696602;28;1774;-56
2023/04/08 00:59:37;;;;;;;44.97;23.40;;;;;;;7.04;100.00;101324.38;698815;28;1073;-57
2023/04/08 00:59:58;;;;;;;43.53;23.13;;;;;;;7.05;100.00;101323.53;698953;28;928;-57
2023/04/08 01:00:19;;;;;;;48.28;23.17;;;;;;;7.06;100.00;101327.00;697129;28;1261;-57
2023/04/08 01:00:57;;;;;;;47.70;23.55;;;;;;;7.05;100.00;101317.44;694465;28;1086;-57
2023/04/08 01:01:36;;;;;;;46.65;23.33;;;;;;;7.01;100.00;101315.66;693777;28;4521;-57
2023/04/08 01:02:05;;;;;;;46.05;22.80;;;;;;;7.01;100.00;101321.72;694516;28;984;-57
2023/04/08 01:02:29;;;;;;;47.97;23.58;;;;;;;7.03;100.00;101319.16;698245;28;1038;-57
2023/04/08 01:03:02;;;;;;;49.75;24.30;;;;;;;7.04;100.00;101326.97;701756;28;963;-57
2023/04/08 01:04:00;;;;;;;43.40;23.15;;;;;;;7.02;100.00;101322.59;704014;28;871;-57
2023/04/08 01:04:48;;;;;;;46.47;23.63;;;;;;;7.04;100.00;101328.72;687786;28;4501;-57
2023/04/08 01:05:14;;;;;;;49.42;23.77;;;;;;;7.03;100.00;101327.81;696631;28;1078;-57
2023/04/08 01:05:58;;;;;;;45.63;23.77;;;;;;;7.11;100.00;101330.59;700109;28;977;-57
2023/04/08 01:06:37;;;;;;;40.33;21.75;;;;;;;7.15;100.00;101328.06;702123;28;852;-57
2023/04/08 01:07:06;;;;;;;40.03;22.08;;;;;;;7.09;100.00;101325.38;703797;28;1089;-57
2023/04/08 01:07:31;;;;;;;41.35;21.40;;;;;;;7.09;100.00;101332.25;699913;28;4735;-57
2023/04/08 01:07:51;;;;;;;43.13;22.40;;;;;;;7.07;100.00;101332.25;700435;28;824;-57
2023/04/08 01:08:16;;;;;;;41.40;22.52;;;;;;;7.06;100.00;101327.00;700232;28;883;-57
2023/04/08 01:08:39;;;;;;;41.65;21.40;;;;;;;7.04;100.00;101326.13;699328;28;1470;-57
2023/04/08 01:09:04;;;;;;;41.92;21.65;;;;;;;7.03;100.00;101330.41;701105;28;891;-57
2023/04/08 01:09:31;;;;;;;41.63;22.15;;;;;;;7.05;100.00;101328.75;698698;28;889;-57
2023/04/08 01:09:55;;;;;;;40.78;21.52;;;;;;;7.04;100.00;101332.19;695594;28;1212;-57
2023/04/08 01:10:32;;;;;;;43.33;21.63;;;;;;;7.03;100.00;101335.63;695500;28;4397;-57
2023/04/08 01:10:57;;;;;;;40.47;22.02;;;;;;;7.06;100.00;101333.09;693043;28;806;-57
2023/04/08 01:11:19;;;;;;;40.72;21.45;;;;;;;7.14;100.00;101331.53;694285;28;1901;-57
2023/04/08 01:11:43;;;;;;;38.05;20.70;;;;;;;7.15;100.00;101329.81;695212;28;1665;-58
2023/04/08 01:12:06;;;;;;;38.25;20.70;;;;;;;7.11;100.00;101331.47;695295;28;1556;-57
2023/04/08 01:12:32;;;;;;;36.65;20.40;;;;;;;7.09;100.00;101330.56;691477;28;1694;-56
2023/04/08 01:12:55;;;;;;;38.33;20.65;;;;;;;7.08;100.00;101335.75;690644;28;878;-57
2023/04/08 01:13:17;;;;;;;41.47;20.60;;;;;;;7.06;100.00;101330.50;691056;28;4518;-57
2023/04/08 01:13:40;;;;;;;39.47;20.52;;;;;;;7.07;100.00;101331.38;693763;28;1468;-57
2023/04/08 01:14:06;;;;;;;35.65;19.80;;;;;;;7.12;100.00;101330.63;694450;28;1227;-57
2023/04/08 01:14:27;;;;;;;34.17;18.77;;;;;;;7.10;100.00;101331.44;696000;28;1549;-56
2023/04/08 01:14:54;;;;;;;33.15;18.30;;;;;;;7.09;100.00;101332.25;698198;28;809;-56
2023/04/08 01:15:15;;;;;;;34.28;18.73;;;;;;;7.08;100.00;101333.13;698529;28;944;-58
2023/04/08 01:15:37;;;;;;;33.03;18.87;;;;;;;7.06;100.00;101335.72;698338;28;1641;-57
2023/04/08 01:15:58;;;;;;;34.00;18.85;;;;;;;7.04;100.00;101328.72;695591;28;3634;-57
2023/04/08 01:16:21;;;;;;;34.85;18.85;;;;;;;7.02;100.00;101323.50;695487;28;4768;-58
2023/04/08 01:16:43;;;;;;;34.67;19.00;;;;;;;7.01;100.00;101332.13;695758;28;1465;-57
2023/04/08 01:17:05;;;;;;;35.03;19.17;;;;;;;7.09;100.00;101335.75;696098;28;810;-58
2023/04/08 01:17:25;;;;;;;33.40;19.05;;;;;;;7.07;100.00;101331.38;694368;28;2073;-58
2023/04/08 01:17:49;;;;;;;35.70;19.20;;;;;;;7.06;100.00;101333.09;693056;28;1464;-57
2023/04/08 01:18:12;;;;;;;34.65;18.98;;;;;;;7.06;100.00;101335.72;692780;28;964;-57
2023/04/08 01:18:35;;;;;;;31.35;18.70;;;;;;;7.06;100.00;101330.50;692628;28;1483;-57
2023/04/08 01:18:55;;;;;;;33.25;19.17;;;;;;;7.05;100.00;101328.75;690350;28;2034;-57
2023/04/08 01:19:28;;;;;;;34.13;18.93;;;;;;;7.04;100.00;101331.31;692868;28;4415;-57
2023/04/08 01:19:50;;;;;;;34.28;19.27;;;;;;;7.04;100.00;101336.53;695045;28;931;-57
2023/04/08 01:20:12;;;;;;;31.08;18.63;;;;;;;7.03;100.00;101329.56;695564;28;936;-57
2023/04/08 01:20:36;;;;;;;31.80;17.58;;;;;;;7.01;100.00;101332.13;697302;28;1639;-58
2023/04/08 01:20:58;;;;;;;32.33;17.90;;;;;;;7.00;100.00;101330.38;701155;28;820;-58
2023/04/08 01:21:21;;;;;;;32.08;18.75;;;;;;;7.00;100.00;101330.38;698477;28;853;-58
2023/04/08 01:21:42;;;;;;;32.05;18.33;;;;;;;6.99;100.00;101326.91;696865;28;1511;-56
2023/04/08 01:22:28;;;;;;;32.90;18.45;;;;;;;7.02;100.00;101331.28;697313;28;999;-57
2023/04/08 01:23:16;;;;;;;34.72;18.60;;;;;;;7.01;100.00;101331.25;683542;28;4989;-57
2023/04/08 01:24:01;;;;;;;31.00;18.20;;;;;;;7.01;100.00;101331.25;696298;28;1582;-57
2023/04/08 01:24:28;;;;;;;31.20;18.35;;;;;;;7.00;100.00;101335.56;687866;28;1092;-58
2023/04/08 01:24:59;;;;;;;30.92;18.15;;;;;;;6.99;100.00;101328.59;699663;28;950;-58
2023/04/08 01:25:26;;;;;;;32.15;18.77;;;;;;;6.98;100.00;101326.88;695718;28;5247;-58
2023/04/08 01:25:52;;;;;;;32.17;17.90;;;;;;;6.99;100.00;101337.31;693126;28;1404;-57
2023/04/08 01:26:21;;;;;;;33.90;18.17;;;;;;;6.97;100.00;101330.31;692661;28;964;-57
2023/04/08 01:26:43;;;;;;;33.58;18.15;;;;;;;6.97;100.00;101332.91;688369;28;1433;-58
2023/04/08 01:27:05;;;;;;;33.95;18.80;;;;;;;6.96;100.00;101336.34;690893;28;1224;-57
2023/04/08 01:27:28;;;;;;;34.90;18.98;;;;;;;6.95;100.00;101331.97;689705;28;1551;-60
2023/04/08 01:27:49;;;;;;;33.65;18.48;;;;;;;6.95;100.00;101334.59;691917;28;1067;-57
2023/04/08 01:28:15;;;;;;;33.75;18.83;;;;;;;6.94;100.00;101328.53;692677;28;5310;-56
2023/04/08 01:28:37;;;;;;;32.50;19.08;;;;;;;6.95;100.00;101338.09;695239;28;1463;-57
2023/04/08 01:29:00;;;;;;;30.17;18.38;;;;;;;6.96;100.00;101328.56;698792;28;1445;-57
2023/04/08 01:29:21;;;;;;;30.55;18.50;;;;;;;6.94;100.00;101333.72;696974;28;956;-57
2023/04/08 01:29:43;;;;;;;32.50;18.17;;;;;;;6.96;100.00;101331.16;694711;28;1703;-57
2023/04/08 01:30:05;;;;;;;33.80;18.75;;;;;;;6.99;100.00;101332.09;695339;28;917;-58
2023/04/08 01:30:29;;;;;;;31.15;18.33;;;;;;;7.01;100.00;101332.13;695014;28;940;-57
2023/04/08 01:30:54;;;;;;;33.20;18.38;;;;;;;7.02;100.00;101343.41;694620;28;1490;-57
2023/04/08 01:31:15;;;;;;;32.22;18.30;;;;;;;7.00;100.00;101335.56;695421;28;4335;-57
2023/04/08 01:31:37;;;;;;;33.25;18.30;;;;;;;7.01;100.00;101336.47;699091;28;1055;-57
2023/04/08 01:32:00;;;;;;;31.38;17.65;;;;;;;7.04;100.00;101334.78;699953;28;828;-58
2023/04/08 01:32:21;;;;;;;31.17;17.60;;;;;;;7.03;100.00;101334.75;696818;28;1395;-57
2023/04/08 01:32:44;;;;;;;29.57;17.37;;;;;;;7.01;100.00;101334.72;697374;28;1507;-57
2023/04/08 01:33:05;;;;;;;30.55;17.42;;;;;;;7.01;100.00;101337.31;695818;28;1247;-57
2023/04/08 01:33:27;;;;;;;32.25;17.85;;;;;;;7.00;100.00;101335.56;692591;28;2097;-57
2023/04/08 01:33:50;;;;;;;30.55;17.60;;;;;;;7.00;100.00;101332.97;691234;28;1469;-57
2023/04/08 01:34:13;;;;;;;31.70;18.13;;;;;;;7.00;100.00;101340.75;692573;28;4596;-56
2023/04/08 01:34:35;;;;;;;33.10;18.27;;;;;;;6.99;100.00;101329.50;694997;28;1566;-57
2023/04/08 01:34:57;;;;;;;32.65;18.60;;;;;;;7.05;100.00;101339.16;692123;28;1497;-57
2023/04/08 01:35:17;;;;;;;30.40;18.20;;;;;;;7.03;100.00;101335.63;691720;28;888;-56
2023/04/08 01:35:38;;;;;;;31.37;18.30;;;;;;;7.07;100.00;101345.25;692735;28;1433;-57
2023/04/08 01:36:00;;;;;;;30.10;17.92;;;;;;;7.09;100.00;101340.97;694052;28;1055;-57
2023/04/08 01:36:20;;;;;;;30.63;17.58;;;;;;;7.15;100.00;101340.22;696113;28;829;-57
2023/04/08 01:36:45;;;;;;;29.50;17.90;;;;;;;7.13;100.00;101336.69;696083;28;1689;-57
2023/04/08 01:37:07;;;;;;;30.13;17.92;;;;;;;7.10;100.00;101337.53;696730;28;4604;-57
2023/04/08 01:37:29;;;;;;;30.05;17.65;;;;;;;7.08;100.00;101336.59;701125;28;1475;-56
2023/04/08 01:37:52;;;;;;;30.83;17.95;;;;;;;7.06;100.00;101335.72;701063;28;1332;-56
2023/04/08 01:38:18;;;;;;;33.97;18.35;;;;;;;7.07;100.00;101339.16;700916;28;895;-56
2023/04/08 01:38:39;;;;;;;32.33;17.90;;;;;;;7.07;100.00;101345.25;698526;28;1187;-57
2023/04/08 01:39:02;;;;;;;31.08;18.00;;;;;;;7.07;100.00;101334.84;696764;28;1663;-56
2023/04/08 01:39:24;;;;;;;32.28;18.50;;;;;;;7.08;100.00;101339.19;697051;28;1061;-58
2023/04/08 01:39:46;;;;;;;34.00;19.15;;;;;;;7.14;100.00;101335.84;696815;28;1459;-56
2023/04/08 01:40:07;;;;;;;33.08;18.50;;;;;;;7.16;100.00;101336.78;696488;28;4441;-56
2023/04/08 01:40:34;;;;;;;31.05;18.40;;;;;;;7.13;100.00;101342.78;698796;28;1547;-56
2023/04/08 01:40:57;;;;;;;33.78;18.90;;;;;;;7.09;100.00;101332.25;696322;28;1450;-56
2023/04/08 01:41:20;;;;;;;32.65;18.85;;;;;;;7.07;100.00;101337.44;697568;28;817;-57
2023/04/08 01:41:40;;;;;;;30.95;18.33;;;;;;;7.08;100.00;101336.59;695923;28;1505;-56
2023/04/08 01:42:02;;;;;;;32.88;18.73;;;;;;;7.14;100.00;101333.25;688037;28;1320;-57
2023/04/08 01:42:24;;;;;;;30.05;18.20;;;;;;;7.14;100.00;101335.84;689110;28;5322;-57
2023/04/08 01:42:47;;;;;;;30.58;18.05;;;;;;;7.12;100.00;101333.22;692475;28;1469;-57
2023/04/08 01:43:09;;;;;;;32.42;18.25;;;;;;;7.15;100.00;101338.47;690635;28;4364;-57
2023/04/08 01:43:33;;;;;;;30.35;18.10;;;;;;;7.14;100.00;101339.34;693520;28;1505;-57
2023/04/08 01:43:54;;;;;;;33.47;18.52;;;;;;;7.13;100.00;101332.38;697319;28;848;-57
2023/04/08 01:44:16;;;;;;;32.57;18.57;;;;;;;7.10;100.00;101332.31;692828;28;810;-56
2023/04/08 01:44:39;;;;;;;33.22;18.70;;;;;;;7.08;100.00;101331.41;691486;28;1493;-56